Roland Colony, South Dakota
Current Conditions -  °F | °C
As of 3:34 AM on Sunday 26 Oct 2014 (Local Time) from KCNB Reporting Station
Clear Clear  
Wind Chill: 39°   Ceiling: Unl
Heat Index: 42°   Visibility: 10mi
Dew Point: 31°   Wind: 5mph
Humidity: 66%   Direction: 170°S
Pressure: 29.99"   Gusts: NA
Location:  44.4253°N, 96.5963°W
Report Text: KCNB 260834Z AUTO 17004KT 10SM CLR 05/00 A2999 RMK AO2 T00531005
Loading
Personal Weather Stations






























Interactive Weather Map
Tropical Storm Tracking
New forecast layout! Learn more

10-Day Weather Forecast

Advertisements
Track Severe Weather on mobile